sensor_id;sensor_type;location;lat;lon;timestamp;P1;durP1;ratioP1;P2;durP2;ratioP2
27003;SDS011;14546;47.590;19.022;2023-01-08T00:01:10;206.20;;;55.67;;
27003;SDS011;14546;47.590;19.022;2023-01-08T00:03:37;266.48;;;55.38;;
27003;SDS011;14546;47.590;19.022;2023-01-08T00:06:03;161.73;;;52.10;;
27003;SDS011;14546;47.590;19.022;2023-01-08T00:08:30;257.67;;;55.15;;
27003;SDS011;14546;47.590;19.022;2023-01-08T00:10:57;290.77;;;56.00;;
27003;SDS011;14546;47.590;19.022;2023-01-08T00:13:23;221.57;;;56.03;;
27003;SDS011;14546;47.590;19.022;2023-01-08T00:15:49;222.13;;;53.35;;
27003;SDS011;14546;47.590;19.022;2023-01-08T00:18:15;389.13;;;56.03;;
27003;SDS011;14546;47.590;19.022;2023-01-08T00:20:42;291.40;;;54.47;;
27003;SDS011;14546;47.590;19.022;2023-01-08T00:23:15;582.97;;;62.22;;
27003;SDS011;14546;47.590;19.022;2023-01-08T00:25:41;204.48;;;55.75;;
27003;SDS011;14546;47.590;19.022;2023-01-08T00:28:07;195.57;;;53.42;;
27003;SDS011;14546;47.590;19.022;2023-01-08T00:30:33;216.02;;;53.13;;
27003;SDS011;14546;47.590;19.022;2023-01-08T00:32:59;423.30;;;57.10;;
27003;SDS011;14546;47.590;19.022;2023-01-08T00:35:25;633.50;;;63.58;;
27003;SDS011;14546;47.590;19.022;2023-01-08T00:37:51;281.55;;;55.90;;
27003;SDS011;14546;47.590;19.022;2023-01-08T00:40:17;165.05;;;51.42;;
27003;SDS011;14546;47.590;19.022;2023-01-08T00:42:43;174.75;;;52.67;;
27003;SDS011;14546;47.590;19.022;2023-01-08T00:45:10;391.10;;;59.03;;
27003;SDS011;14546;47.590;19.022;2023-01-08T00:47:36;215.07;;;52.17;;
27003;SDS011;14546;47.590;19.022;2023-01-08T00:50:05;172.55;;;50.88;;
27003;SDS011;14546;47.590;19.022;2023-01-08T00:52:31;364.15;;;54.95;;
27003;SDS011;14546;47.590;19.022;2023-01-08T00:54:57;196.90;;;51.55;;
27003;SDS011;14546;47.590;19.022;2023-01-08T00:57:23;169.50;;;51.63;;
27003;SDS011;14546;47.590;19.022;2023-01-08T00:59:49;179.95;;;52.83;;
27003;SDS011;14546;47.590;19.022;2023-01-08T01:02:15;202.45;;;51.45;;
27003;SDS011;14546;47.590;19.022;2023-01-08T01:04:41;210.02;;;53.08;;
27003;SDS011;14546;47.590;19.022;2023-01-08T01:07:07;195.80;;;56.13;;
27003;SDS011;14546;47.590;19.022;2023-01-08T01:09:33;218.43;;;55.75;;
27003;SDS011;14546;47.590;19.022;2023-01-08T01:11:59;394.27;;;58.33;;
27003;SDS011;14546;47.590;19.022;2023-01-08T01:14:25;269.02;;;55.83;;
27003;SDS011;14546;47.590;19.022;2023-01-08T01:16:51;450.92;;;59.85;;
27003;SDS011;14546;47.590;19.022;2023-01-08T01:19:17;303.98;;;56.42;;
27003;SDS011;14546;47.590;19.022;2023-01-08T01:21:43;140.63;;;51.42;;
27003;SDS011;14546;47.590;19.022;2023-01-08T01:24:10;267.95;;;54.13;;
27003;SDS011;14546;47.590;19.022;2023-01-08T01:26:37;401.77;;;55.10;;
27003;SDS011;14546;47.590;19.022;2023-01-08T01:29:03;203.50;;;53.47;;
27003;SDS011;14546;47.590;19.022;2023-01-08T01:31:29;280.40;;;54.05;;
27003;SDS011;14546;47.590;19.022;2023-01-08T01:33:56;234.77;;;54.25;;
27003;SDS011;14546;47.590;19.022;2023-01-08T01:36:22;444.75;;;56.42;;
27003;SDS011;14546;47.590;19.022;2023-01-08T01:38:49;586.72;;;64.43;;
27003;SDS011;14546;47.590;19.022;2023-01-08T01:41:26;166.18;;;51.03;;
27003;SDS011;14546;47.590;19.022;2023-01-08T01:43:53;259.58;;;53.33;;
27003;SDS011;14546;47.590;19.022;2023-01-08T01:46:36;262.88;;;52.47;;
27003;SDS011;14546;47.590;19.022;2023-01-08T01:49:09;310.55;;;57.22;;
27003;SDS011;14546;47.590;19.022;2023-01-08T01:51:36;173.20;;;51.30;;
27003;SDS011;14546;47.590;19.022;2023-01-08T01:54:04;481.17;;;55.60;;
27003;SDS011;14546;47.590;19.022;2023-01-08T01:56:31;171.45;;;50.80;;
27003;SDS011;14546;47.590;19.022;2023-01-08T01:58:58;235.95;;;55.50;;
27003;SDS011;14546;47.590;19.022;2023-01-08T02:01:24;503.13;;;62.25;;
27003;SDS011;14546;47.590;19.022;2023-01-08T02:03:50;197.48;;;53.83;;
27003;SDS011;14546;47.590;19.022;2023-01-08T02:09:03;176.05;;;51.05;;
27003;SDS011;14546;47.590;19.022;2023-01-08T02:11:46;197.15;;;54.35;;
27003;SDS011;14546;47.590;19.022;2023-01-08T02:16:41;180.18;;;55.13;;
27003;SDS011;14546;47.590;19.022;2023-01-08T02:19:52;167.82;;;55.33;;
27003;SDS011;14546;47.590;19.022;2023-01-08T02:22:04;216.65;;;56.85;;
27003;SDS011;14546;47.590;19.022;2023-01-08T02:27:04;214.65;;;57.08;;
27003;SDS011;14546;47.590;19.022;2023-01-08T02:29:32;278.30;;;58.53;;
27003;SDS011;14546;47.590;19.022;2023-01-08T02:31:59;196.07;;;59.08;;
27003;SDS011;14546;47.590;19.022;2023-01-08T02:34:25;219.07;;;58.78;;
27003;SDS011;14546;47.590;19.022;2023-01-08T02:36:53;247.43;;;61.15;;
27003;SDS011;14546;47.590;19.022;2023-01-08T02:44:16;184.30;;;58.70;;
27003;SDS011;14546;47.590;19.022;2023-01-08T02:46:44;217.73;;;57.38;;
27003;SDS011;14546;47.590;19.022;2023-01-08T02:49:11;183.27;;;59.15;;
27003;SDS011;14546;47.590;19.022;2023-01-08T02:51:40;171.65;;;56.55;;
27003;SDS011;14546;47.590;19.022;2023-01-08T02:54:08;162.30;;;55.60;;
27003;SDS011;14546;47.590;19.022;2023-01-08T02:56:36;166.70;;;55.78;;
27003;SDS011;14546;47.590;19.022;2023-01-08T02:59:04;166.80;;;53.67;;
27003;SDS011;14546;47.590;19.022;2023-01-08T03:01:32;166.15;;;55.22;;
27003;SDS011;14546;47.590;19.022;2023-01-08T03:04:02;153.07;;;52.63;;
27003;SDS011;14546;47.590;19.022;2023-01-08T03:06:28;147.77;;;53.00;;
27003;SDS011;14546;47.590;19.022;2023-01-08T03:08:55;143.80;;;52.13;;
27003;SDS011;14546;47.590;19.022;2023-01-08T03:11:22;147.73;;;52.75;;
27003;SDS011;14546;47.590;19.022;2023-01-08T03:13:50;137.90;;;52.22;;
27003;SDS011;14546;47.590;19.022;2023-01-08T03:16:53;135.82;;;49.95;;
27003;SDS011;14546;47.590;19.022;2023-01-08T03:19:13;127.22;;;48.88;;
27003;SDS011;14546;47.590;19.022;2023-01-08T03:21:40;117.32;;;48.20;;
27003;SDS011;14546;47.590;19.022;2023-01-08T03:24:07;127.13;;;49.22;;
27003;SDS011;14546;47.590;19.022;2023-01-08T03:26:37;123.55;;;49.72;;
27003;SDS011;14546;47.590;19.022;2023-01-08T03:29:03;120.53;;;49.28;;
27003;SDS011;14546;47.590;19.022;2023-01-08T03:31:30;118.55;;;49.28;;
27003;SDS011;14546;47.590;19.022;2023-01-08T03:33:59;101.72;;;45.30;;
27003;SDS011;14546;47.590;19.022;2023-01-08T03:36:26;128.00;;;47.83;;
27003;SDS011;14546;47.590;19.022;2023-01-08T03:39:06;108.72;;;44.97;;
27003;SDS011;14546;47.590;19.022;2023-01-08T03:41:33;105.35;;;46.35;;
27003;SDS011;14546;47.590;19.022;2023-01-08T03:44:00;107.18;;;45.85;;
27003;SDS011;14546;47.590;19.022;2023-01-08T03:46:27;118.75;;;47.65;;
27003;SDS011;14546;47.590;19.022;2023-01-08T03:48:54;98.53;;;47.17;;
27003;SDS011;14546;47.590;19.022;2023-01-08T03:51:21;103.10;;;44.58;;
27003;SDS011;14546;47.590;19.022;2023-01-08T03:53:47;105.72;;;45.60;;
27003;SDS011;14546;47.590;19.022;2023-01-08T03:56:14;111.03;;;47.42;;
27003;SDS011;14546;47.590;19.022;2023-01-08T03:58:40;100.28;;;43.72;;
27003;SDS011;14546;47.590;19.022;2023-01-08T04:01:06;101.40;;;46.80;;
27003;SDS011;14546;47.590;19.022;2023-01-08T04:03:32;107.22;;;45.85;;
27003;SDS011;14546;47.590;19.022;2023-01-08T04:05:59;102.05;;;44.08;;
27003;SDS011;14546;47.590;19.022;2023-01-08T04:08:25;98.63;;;46.10;;
27003;SDS011;14546;47.590;19.022;2023-01-08T04:10:51;96.13;;;45.03;;
27003;SDS011;14546;47.590;19.022;2023-01-08T04:13:17;104.68;;;45.95;;
27003;SDS011;14546;47.590;19.022;2023-01-08T04:15:49;99.53;;;47.03;;
27003;SDS011;14546;47.590;19.022;2023-01-08T04:18:18;108.30;;;45.03;;
27003;SDS011;14546;47.590;19.022;2023-01-08T04:20:45;108.38;;;46.92;;
27003;SDS011;14546;47.590;19.022;2023-01-08T04:23:11;102.38;;;46.38;;
27003;SDS011;14546;47.590;19.022;2023-01-08T04:25:37;96.65;;;45.47;;
27003;SDS011;14546;47.590;19.022;2023-01-08T04:28:03;100.85;;;45.90;;
27003;SDS011;14546;47.590;19.022;2023-01-08T04:30:29;114.32;;;47.20;;
27003;SDS011;14546;47.590;19.022;2023-01-08T04:32:56;108.55;;;48.13;;
27003;SDS011;14546;47.590;19.022;2023-01-08T04:35:22;96.28;;;44.28;;
27003;SDS011;14546;47.590;19.022;2023-01-08T04:37:48;95.28;;;45.83;;
27003;SDS011;14546;47.590;19.022;2023-01-08T04:40:14;101.25;;;45.08;;
27003;SDS011;14546;47.590;19.022;2023-01-08T04:42:40;102.25;;;46.97;;
27003;SDS011;14546;47.590;19.022;2023-01-08T04:45:06;104.28;;;47.00;;
27003;SDS011;14546;47.590;19.022;2023-01-08T04:47:32;88.97;;;44.92;;
27003;SDS011;14546;47.590;19.022;2023-01-08T04:49:58;105.68;;;45.35;;
27003;SDS011;14546;47.590;19.022;2023-01-08T04:52:24;102.65;;;45.42;;
27003;SDS011;14546;47.590;19.022;2023-01-08T04:54:52;99.00;;;46.33;;
27003;SDS011;14546;47.590;19.022;2023-01-08T04:57:18;95.97;;;45.88;;
27003;SDS011;14546;47.590;19.022;2023-01-08T04:59:44;104.95;;;45.63;;
27003;SDS011;14546;47.590;19.022;2023-01-08T05:02:10;98.70;;;45.10;;
27003;SDS011;14546;47.590;19.022;2023-01-08T05:04:36;97.95;;;44.58;;
27003;SDS011;14546;47.590;19.022;2023-01-08T05:07:03;99.18;;;44.28;;
27003;SDS011;14546;47.590;19.022;2023-01-08T05:09:29;95.30;;;45.58;;
27003;SDS011;14546;47.590;19.022;2023-01-08T05:11:58;99.28;;;46.65;;
27003;SDS011;14546;47.590;19.022;2023-01-08T05:14:24;96.57;;;46.15;;
27003;SDS011;14546;47.590;19.022;2023-01-08T05:16:51;97.38;;;45.33;;
27003;SDS011;14546;47.590;19.022;2023-01-08T05:19:17;98.03;;;46.13;;
27003;SDS011;14546;47.590;19.022;2023-01-08T05:21:43;101.97;;;45.03;;
27003;SDS011;14546;47.590;19.022;2023-01-08T05:24:09;95.97;;;45.80;;
27003;SDS011;14546;47.590;19.022;2023-01-08T05:26:35;96.18;;;45.30;;
27003;SDS011;14546;47.590;19.022;2023-01-08T05:29:01;104.03;;;46.42;;
27003;SDS011;14546;47.590;19.022;2023-01-08T05:31:27;99.05;;;46.25;;
27003;SDS011;14546;47.590;19.022;2023-01-08T05:33:55;98.50;;;45.38;;
27003;SDS011;14546;47.590;19.022;2023-01-08T05:36:21;90.53;;;44.30;;
27003;SDS011;14546;47.590;19.022;2023-01-08T05:38:47;92.63;;;45.35;;
27003;SDS011;14546;47.590;19.022;2023-01-08T05:41:13;88.72;;;43.90;;
27003;SDS011;14546;47.590;19.022;2023-01-08T05:43:39;88.93;;;43.75;;
27003;SDS011;14546;47.590;19.022;2023-01-08T05:46:05;93.43;;;46.22;;
27003;SDS011;14546;47.590;19.022;2023-01-08T05:48:32;100.57;;;46.47;;
27003;SDS011;14546;47.590;19.022;2023-01-08T05:50:59;95.70;;;46.13;;
27003;SDS011;14546;47.590;19.022;2023-01-08T05:53:25;94.18;;;46.15;;
27003;SDS011;14546;47.590;19.022;2023-01-08T05:55:51;97.32;;;46.85;;
27003;SDS011;14546;47.590;19.022;2023-01-08T05:58:17;104.82;;;48.33;;
27003;SDS011;14546;47.590;19.022;2023-01-08T06:00:43;104.15;;;47.28;;
27003;SDS011;14546;47.590;19.022;2023-01-08T06:03:09;106.00;;;47.08;;
27003;SDS011;14546;47.590;19.022;2023-01-08T06:05:35;94.38;;;44.67;;
27003;SDS011;14546;47.590;19.022;2023-01-08T06:08:02;99.95;;;47.20;;
27003;SDS011;14546;47.590;19.022;2023-01-08T06:10:28;99.70;;;46.38;;
27003;SDS011;14546;47.590;19.022;2023-01-08T06:12:54;102.22;;;46.97;;
27003;SDS011;14546;47.590;19.022;2023-01-08T06:15:20;97.63;;;46.80;;
27003;SDS011;14546;47.590;19.022;2023-01-08T06:17:46;99.25;;;45.05;;
27003;SDS011;14546;47.590;19.022;2023-01-08T06:20:12;101.95;;;46.30;;
27003;SDS011;14546;47.590;19.022;2023-01-08T06:22:38;104.45;;;46.33;;
27003;SDS011;14546;47.590;19.022;2023-01-08T06:25:04;102.82;;;46.75;;
27003;SDS011;14546;47.590;19.022;2023-01-08T06:27:31;96.78;;;45.53;;
27003;SDS011;14546;47.590;19.022;2023-01-08T06:29:57;90.82;;;44.78;;
27003;SDS011;14546;47.590;19.022;2023-01-08T06:32:23;100.32;;;46.05;;
27003;SDS011;14546;47.590;19.022;2023-01-08T06:34:49;99.40;;;46.80;;
27003;SDS011;14546;47.590;19.022;2023-01-08T06:37:15;90.63;;;45.13;;
27003;SDS011;14546;47.590;19.022;2023-01-08T06:39:41;95.43;;;44.42;;
27003;SDS011;14546;47.590;19.022;2023-01-08T06:42:07;93.30;;;44.17;;
27003;SDS011;14546;47.590;19.022;2023-01-08T06:44:33;93.15;;;43.45;;
27003;SDS011;14546;47.590;19.022;2023-01-08T06:46:59;93.15;;;44.42;;
27003;SDS011;14546;47.590;19.022;2023-01-08T06:49:25;98.13;;;44.78;;
27003;SDS011;14546;47.590;19.022;2023-01-08T06:51:51;79.57;;;42.45;;
27003;SDS011;14546;47.590;19.022;2023-01-08T06:54:17;81.95;;;44.58;;
27003;SDS011;14546;47.590;19.022;2023-01-08T06:56:43;80.68;;;43.83;;
27003;SDS011;14546;47.590;19.022;2023-01-08T06:59:09;82.43;;;42.67;;
27003;SDS011;14546;47.590;19.022;2023-01-08T07:01:35;90.78;;;42.72;;
27003;SDS011;14546;47.590;19.022;2023-01-08T07:04:01;86.97;;;42.78;;
27003;SDS011;14546;47.590;19.022;2023-01-08T07:06:27;84.43;;;41.97;;
27003;SDS011;14546;47.590;19.022;2023-01-08T07:08:53;88.35;;;43.70;;
27003;SDS011;14546;47.590;19.022;2023-01-08T07:11:19;86.28;;;42.95;;
27003;SDS011;14546;47.590;19.022;2023-01-08T07:13:45;79.72;;;41.72;;
27003;SDS011;14546;47.590;19.022;2023-01-08T07:16:12;79.95;;;43.67;;
27003;SDS011;14546;47.590;19.022;2023-01-08T07:18:38;79.03;;;42.33;;
27003;SDS011;14546;47.590;19.022;2023-01-08T07:21:05;81.60;;;43.17;;
27003;SDS011;14546;47.590;19.022;2023-01-08T07:23:32;76.07;;;41.13;;
27003;SDS011;14546;47.590;19.022;2023-01-08T07:25:59;89.15;;;44.33;;
27003;SDS011;14546;47.590;19.022;2023-01-08T07:28:25;82.60;;;43.67;;
27003;SDS011;14546;47.590;19.022;2023-01-08T07:30:51;86.47;;;45.08;;
27003;SDS011;14546;47.590;19.022;2023-01-08T07:33:17;81.40;;;42.45;;
27003;SDS011;14546;47.590;19.022;2023-01-08T07:35:50;86.10;;;43.67;;
27003;SDS011;14546;47.590;19.022;2023-01-08T07:38:16;84.63;;;45.15;;
27003;SDS011;14546;47.590;19.022;2023-01-08T07:40:42;85.82;;;44.85;;
27003;SDS011;14546;47.590;19.022;2023-01-08T07:43:08;80.03;;;44.35;;
27003;SDS011;14546;47.590;19.022;2023-01-08T07:45:36;85.25;;;45.50;;
27003;SDS011;14546;47.590;19.022;2023-01-08T07:48:02;92.55;;;45.85;;
27003;SDS011;14546;47.590;19.022;2023-01-08T07:50:29;85.07;;;44.33;;
27003;SDS011;14546;47.590;19.022;2023-01-08T07:52:56;81.93;;;43.92;;
27003;SDS011;14546;47.590;19.022;2023-01-08T07:55:22;88.75;;;47.40;;
27003;SDS011;14546;47.590;19.022;2023-01-08T07:57:48;86.55;;;45.17;;
27003;SDS011;14546;47.590;19.022;2023-01-08T08:00:14;87.13;;;46.35;;
27003;SDS011;14546;47.590;19.022;2023-01-08T08:02:40;90.63;;;47.90;;
27003;SDS011;14546;47.590;19.022;2023-01-08T08:05:06;93.18;;;47.47;;
27003;SDS011;14546;47.590;19.022;2023-01-08T08:07:32;88.82;;;46.35;;
27003;SDS011;14546;47.590;19.022;2023-01-08T08:10:00;88.60;;;45.70;;
27003;SDS011;14546;47.590;19.022;2023-01-08T08:12:26;87.78;;;45.55;;
27003;SDS011;14546;47.590;19.022;2023-01-08T08:14:52;84.22;;;43.53;;
27003;SDS011;14546;47.590;19.022;2023-01-08T08:17:18;90.28;;;46.55;;
27003;SDS011;14546;47.590;19.022;2023-01-08T08:19:45;89.55;;;46.60;;
27003;SDS011;14546;47.590;19.022;2023-01-08T08:22:11;93.63;;;48.28;;
27003;SDS011;14546;47.590;19.022;2023-01-08T08:24:38;87.63;;;46.63;;
27003;SDS011;14546;47.590;19.022;2023-01-08T08:27:04;83.03;;;45.55;;
27003;SDS011;14546;47.590;19.022;2023-01-08T08:29:30;84.50;;;46.53;;
27003;SDS011;14546;47.590;19.022;2023-01-08T08:31:56;82.85;;;45.40;;
27003;SDS011;14546;47.590;19.022;2023-01-08T08:34:22;88.07;;;46.17;;
27003;SDS011;14546;47.590;19.022;2023-01-08T08:36:48;85.97;;;45.83;;
27003;SDS011;14546;47.590;19.022;2023-01-08T08:39:14;88.10;;;46.78;;
27003;SDS011;14546;47.590;19.022;2023-01-08T08:41:40;85.55;;;46.35;;
27003;SDS011;14546;47.590;19.022;2023-01-08T08:44:07;90.03;;;45.65;;
27003;SDS011;14546;47.590;19.022;2023-01-08T08:46:33;84.97;;;45.17;;
27003;SDS011;14546;47.590;19.022;2023-01-08T08:49:00;88.70;;;44.60;;
27003;SDS011;14546;47.590;19.022;2023-01-08T08:51:26;83.82;;;44.88;;
27003;SDS011;14546;47.590;19.022;2023-01-08T08:53:52;84.85;;;46.17;;
27003;SDS011;14546;47.590;19.022;2023-01-08T08:56:18;80.60;;;45.08;;
27003;SDS011;14546;47.590;19.022;2023-01-08T08:58:44;85.90;;;44.67;;
27003;SDS011;14546;47.590;19.022;2023-01-08T09:01:10;85.25;;;44.40;;
27003;SDS011;14546;47.590;19.022;2023-01-08T09:03:37;80.47;;;44.22;;
27003;SDS011;14546;47.590;19.022;2023-01-08T09:06:03;77.82;;;43.80;;
27003;SDS011;14546;47.590;19.022;2023-01-08T09:08:29;75.35;;;43.20;;
27003;SDS011;14546;47.590;19.022;2023-01-08T09:10:55;85.57;;;45.42;;
27003;SDS011;14546;47.590;19.022;2023-01-08T09:13:21;83.40;;;43.40;;
27003;SDS011;14546;47.590;19.022;2023-01-08T09:15:47;74.95;;;42.22;;
27003;SDS011;14546;47.590;19.022;2023-01-08T09:18:13;70.40;;;40.67;;
27003;SDS011;14546;47.590;19.022;2023-01-08T09:20:39;69.18;;;40.10;;
27003;SDS011;14546;47.590;19.022;2023-01-08T09:23:05;72.18;;;41.83;;
27003;SDS011;14546;47.590;19.022;2023-01-08T09:25:31;71.85;;;40.42;;
27003;SDS011;14546;47.590;19.022;2023-01-08T09:28:05;69.38;;;39.70;;
27003;SDS011;14546;47.590;19.022;2023-01-08T09:30:33;73.82;;;40.97;;
27003;SDS011;14546;47.590;19.022;2023-01-08T09:32:59;73.55;;;40.17;;
27003;SDS011;14546;47.590;19.022;2023-01-08T09:35:26;71.07;;;38.78;;
27003;SDS011;14546;47.590;19.022;2023-01-08T09:37:53;65.78;;;37.17;;
27003;SDS011;14546;47.590;19.022;2023-01-08T09:40:20;61.72;;;36.97;;
27003;SDS011;14546;47.590;19.022;2023-01-08T09:42:51;61.97;;;36.88;;
27003;SDS011;14546;47.590;19.022;2023-01-08T09:45:25;65.60;;;36.33;;
27003;SDS011;14546;47.590;19.022;2023-01-08T09:48:06;60.88;;;35.95;;
27003;SDS011;14546;47.590;19.022;2023-01-08T09:50:36;60.38;;;37.05;;
27003;SDS011;14546;47.590;19.022;2023-01-08T09:53:03;63.38;;;36.20;;
27003;SDS011;14546;47.590;19.022;2023-01-08T09:55:32;58.30;;;35.78;;
27003;SDS011;14546;47.590;19.022;2023-01-08T09:57:59;63.05;;;36.13;;
27003;SDS011;14546;47.590;19.022;2023-01-08T10:00:26;62.78;;;36.97;;
27003;SDS011;14546;47.590;19.022;2023-01-08T10:02:53;58.28;;;34.72;;
27003;SDS011;14546;47.590;19.022;2023-01-08T10:05:20;61.17;;;35.90;;
27003;SDS011;14546;47.590;19.022;2023-01-08T10:07:46;60.38;;;34.80;;
27003;SDS011;14546;47.590;19.022;2023-01-08T10:10:21;62.08;;;35.00;;
27003;SDS011;14546;47.590;19.022;2023-01-08T10:12:48;57.85;;;34.50;;
27003;SDS011;14546;47.590;19.022;2023-01-08T10:15:15;53.80;;;34.17;;
27003;SDS011;14546;47.590;19.022;2023-01-08T10:17:47;54.75;;;32.58;;
27003;SDS011;14546;47.590;19.022;2023-01-08T10:20:23;51.00;;;32.33;;
27003;SDS011;14546;47.590;19.022;2023-01-08T10:22:51;50.33;;;31.58;;
27003;SDS011;14546;47.590;19.022;2023-01-08T10:25:22;49.97;;;32.40;;
27003;SDS011;14546;47.590;19.022;2023-01-08T10:28:01;49.65;;;32.42;;
27003;SDS011;14546;47.590;19.022;2023-01-08T10:32:54;49.42;;;31.58;;
27003;SDS011;14546;47.590;19.022;2023-01-08T10:35:21;54.03;;;30.85;;
27003;SDS011;14546;47.590;19.022;2023-01-08T10:37:49;46.55;;;30.00;;
27003;SDS011;14546;47.590;19.022;2023-01-08T10:43:33;41.25;;;27.15;;
27003;SDS011;14546;47.590;19.022;2023-01-08T10:45:57;41.15;;;27.60;;
27003;SDS011;14546;47.590;19.022;2023-01-08T10:48:24;42.83;;;28.73;;
27003;SDS011;14546;47.590;19.022;2023-01-08T10:51:02;42.28;;;28.45;;
27003;SDS011;14546;47.590;19.022;2023-01-08T10:53:28;40.90;;;27.13;;
27003;SDS011;14546;47.590;19.022;2023-01-08T10:55:58;50.30;;;29.02;;
27003;SDS011;14546;47.590;19.022;2023-01-08T10:58:25;40.03;;;27.33;;
27003;SDS011;14546;47.590;19.022;2023-01-08T11:00:52;43.40;;;26.90;;
27003;SDS011;14546;47.590;19.022;2023-01-08T11:03:36;42.13;;;28.10;;
27003;SDS011;14546;47.590;19.022;2023-01-08T11:06:12;46.40;;;29.08;;
27003;SDS011;14546;47.590;19.022;2023-01-08T11:08:38;38.28;;;25.83;;
27003;SDS011;14546;47.590;19.022;2023-01-08T11:11:04;39.72;;;27.77;;
27003;SDS011;14546;47.590;19.022;2023-01-08T11:13:32;39.65;;;26.80;;
27003;SDS011;14546;47.590;19.022;2023-01-08T11:16:02;36.92;;;25.67;;
27003;SDS011;14546;47.590;19.022;2023-01-08T11:18:28;40.35;;;27.90;;
27003;SDS011;14546;47.590;19.022;2023-01-08T11:21:08;39.97;;;26.02;;
27003;SDS011;14546;47.590;19.022;2023-01-08T11:23:34;38.97;;;25.73;;
27003;SDS011;14546;47.590;19.022;2023-01-08T11:26:10;41.35;;;27.30;;
27003;SDS011;14546;47.590;19.022;2023-01-08T11:28:57;38.90;;;25.13;;
27003;SDS011;14546;47.590;19.022;2023-01-08T11:31:32;40.90;;;27.52;;
27003;SDS011;14546;47.590;19.022;2023-01-08T11:34:02;39.40;;;29.23;;
27003;SDS011;14546;47.590;19.022;2023-01-08T11:36:34;37.25;;;27.05;;
27003;SDS011;14546;47.590;19.022;2023-01-08T11:39:01;41.53;;;28.65;;
27003;SDS011;14546;47.590;19.022;2023-01-08T11:56:43;40.38;;;28.38;;
27003;SDS011;14546;47.590;19.022;2023-01-08T12:09:40;42.97;;;29.33;;
27003;SDS011;14546;47.590;19.022;2023-01-08T12:15:13;43.22;;;30.75;;
27003;SDS011;14546;47.590;19.022;2023-01-08T12:22:37;43.50;;;29.52;;
27003;SDS011;14546;47.590;19.022;2023-01-08T12:32:38;41.45;;;29.80;;
27003;SDS011;14546;47.590;19.022;2023-01-08T12:37:35;42.22;;;30.58;;
27003;SDS011;14546;47.590;19.022;2023-01-08T12:40:14;45.88;;;31.67;;
27003;SDS011;14546;47.590;19.022;2023-01-08T12:42:42;42.35;;;29.48;;
27003;SDS011;14546;47.590;19.022;2023-01-08T12:45:15;46.28;;;31.63;;
27003;SDS011;14546;47.590;19.022;2023-01-08T12:47:42;45.13;;;31.30;;
27003;SDS011;14546;47.590;19.022;2023-01-08T12:50:26;42.90;;;30.70;;
27003;SDS011;14546;47.590;19.022;2023-01-08T12:55:33;42.30;;;30.13;;
27003;SDS011;14546;47.590;19.022;2023-01-08T12:58:26;44.22;;;30.58;;
27003;SDS011;14546;47.590;19.022;2023-01-08T13:03:33;45.78;;;32.63;;
27003;SDS011;14546;47.590;19.022;2023-01-08T13:06:14;48.28;;;32.65;;
27003;SDS011;14546;47.590;19.022;2023-01-08T13:08:40;51.13;;;33.83;;
27003;SDS011;14546;47.590;19.022;2023-01-08T13:11:10;51.67;;;33.33;;
27003;SDS011;14546;47.590;19.022;2023-01-08T13:13:40;46.35;;;34.17;;
27003;SDS011;14546;47.590;19.022;2023-01-08T13:18:38;55.88;;;35.80;;
27003;SDS011;14546;47.590;19.022;2023-01-08T13:21:06;54.65;;;35.40;;
27003;SDS011;14546;47.590;19.022;2023-01-08T13:23:34;54.53;;;36.08;;
27003;SDS011;14546;47.590;19.022;2023-01-08T13:26:01;59.33;;;36.25;;
27003;SDS011;14546;47.590;19.022;2023-01-08T13:31:06;64.85;;;39.78;;
27003;SDS011;14546;47.590;19.022;2023-01-08T13:38:38;65.10;;;40.28;;
27003;SDS011;14546;47.590;19.022;2023-01-08T13:41:04;66.97;;;42.17;;
27003;SDS011;14546;47.590;19.022;2023-01-08T13:43:42;74.00;;;43.38;;
27003;SDS011;14546;47.590;19.022;2023-01-08T13:46:14;70.30;;;43.70;;
27003;SDS011;14546;47.590;19.022;2023-01-08T13:48:49;66.70;;;42.38;;
27003;SDS011;14546;47.590;19.022;2023-01-08T13:51:30;73.65;;;44.70;;
27003;SDS011;14546;47.590;19.022;2023-01-08T13:54:04;70.38;;;45.38;;
27003;SDS011;14546;47.590;19.022;2023-01-08T13:56:31;70.32;;;43.45;;
27003;SDS011;14546;47.590;19.022;2023-01-08T13:58:57;70.70;;;44.50;;
27003;SDS011;14546;47.590;19.022;2023-01-08T14:01:23;78.80;;;48.63;;
27003;SDS011;14546;47.590;19.022;2023-01-08T14:03:50;78.82;;;48.45;;
27003;SDS011;14546;47.590;19.022;2023-01-08T14:06:17;77.00;;;49.08;;
27003;SDS011;14546;47.590;19.022;2023-01-08T14:08:50;84.18;;;49.75;;
27003;SDS011;14546;47.590;19.022;2023-01-08T14:11:17;84.00;;;50.47;;
27003;SDS011;14546;47.590;19.022;2023-01-08T14:13:43;78.43;;;49.35;;
27003;SDS011;14546;47.590;19.022;2023-01-08T14:16:10;76.22;;;49.03;;
27003;SDS011;14546;47.590;19.022;2023-01-08T14:18:44;78.25;;;49.90;;
27003;SDS011;14546;47.590;19.022;2023-01-08T14:21:10;80.00;;;50.97;;
27003;SDS011;14546;47.590;19.022;2023-01-08T14:23:41;83.85;;;50.33;;
27003;SDS011;14546;47.590;19.022;2023-01-08T14:28:55;82.88;;;53.33;;
27003;SDS011;14546;47.590;19.022;2023-01-08T14:31:22;86.68;;;53.15;;
27003;SDS011;14546;47.590;19.022;2023-01-08T14:33:48;87.70;;;54.42;;
27003;SDS011;14546;47.590;19.022;2023-01-08T14:36:15;87.60;;;56.78;;
27003;SDS011;14546;47.590;19.022;2023-01-08T14:38:41;93.80;;;56.72;;
27003;SDS011;14546;47.590;19.022;2023-01-08T14:41:12;88.00;;;56.63;;
27003;SDS011;14546;47.590;19.022;2023-01-08T14:43:41;88.10;;;58.58;;
27003;SDS011;14546;47.590;19.022;2023-01-08T14:46:16;93.45;;;57.50;;
27003;SDS011;14546;47.590;19.022;2023-01-08T14:48:43;89.80;;;56.47;;
27003;SDS011;14546;47.590;19.022;2023-01-08T14:51:11;91.35;;;55.78;;
27003;SDS011;14546;47.590;19.022;2023-01-08T14:53:44;90.60;;;58.75;;
27003;SDS011;14546;47.590;19.022;2023-01-08T14:56:11;93.45;;;57.72;;
27003;SDS011;14546;47.590;19.022;2023-01-08T14:58:38;93.10;;;57.50;;
27003;SDS011;14546;47.590;19.022;2023-01-08T15:01:06;97.90;;;59.42;;
27003;SDS011;14546;47.590;19.022;2023-01-08T15:05:59;93.70;;;58.50;;
27003;SDS011;14546;47.590;19.022;2023-01-08T15:08:32;102.70;;;58.22;;
27003;SDS011;14546;47.590;19.022;2023-01-08T15:13:43;95.25;;;61.97;;
27003;SDS011;14546;47.590;19.022;2023-01-08T15:16:10;97.78;;;61.25;;
27003;SDS011;14546;47.590;19.022;2023-01-08T15:18:43;95.63;;;59.47;;
27003;SDS011;14546;47.590;19.022;2023-01-08T15:21:14;96.30;;;59.75;;
27003;SDS011;14546;47.590;19.022;2023-01-08T15:23:41;90.97;;;59.20;;
27003;SDS011;14546;47.590;19.022;2023-01-08T15:26:16;94.53;;;60.13;;
27003;SDS011;14546;47.590;19.022;2023-01-08T15:29:03;96.95;;;59.95;;
27003;SDS011;14546;47.590;19.022;2023-01-08T15:34:08;96.10;;;59.85;;
27003;SDS011;14546;47.590;19.022;2023-01-08T15:36:34;93.88;;;60.45;;